CCVAC SCTE-SCFT
Flight info
| Callsign | CCVAC |
|---|---|
| Flight time | 0h 43m |
| Altitude | 11000 |
| Route | 413512S0730620W DCT TE447 DCT GUTIN DCT 423334S0723236W 424110S0722534W 424448S0721819W 425100S0720706W DCT 425839S0720051W 430043S0720241W 430402S0720137W 431220S0715859W DCT 431317S0715655W |
| Aircraft | C208/L-SDFGR/C |
Departure
| Time | 2026-05-04 17:37 |
|---|---|
| Airport | El Tepual International Airport (SCTE) |
Arrival
| Time | 2026-05-04 18:21 |
|---|---|
| Airport | Futaleufú Airport (SCFT) |
| Time | Latitude | Longitude | Altitude | Speed | Heading |
|---|---|---|---|---|---|
| 2026-05-04 17:26 | -41.44106 | -73.09711 | 278 ft | 0 kts | 93° |
| 2026-05-04 17:29 | -41.44106 | -73.09710 | 278 ft | 0 kts | 93° |
| 2026-05-04 17:33 | -41.44158 | -73.09625 | 278 ft | 20 kts | 204° |
| 2026-05-04 17:33 | -41.44391 | -73.09634 | 281 ft | 48 kts | 179° |
| 2026-05-04 17:34 | -41.44947 | -73.09655 | 288 ft | 28 kts | 178° |
| 2026-05-04 17:34 | -41.45064 | -73.09607 | 290 ft | 14 kts | 108° |
| 2026-05-04 17:35 | -41.45064 | -73.09519 | 289 ft | 0 kts | 88° |
| 2026-05-04 17:35 | -41.45064 | -73.09489 | 289 ft | 15 kts | 88° |
| 2026-05-04 17:35 | -41.45024 | -73.09432 | 289 ft | 0 kts | 1° |
| 2026-05-04 17:37 | -41.45021 | -73.09432 | 289 ft | 5 kts | 2° |
| 2026-05-04 17:37 | -41.44841 | -73.09420 | 292 ft | 65 kts | 1° |
| 2026-05-04 17:37 | -41.44181 | -73.09417 | 579 ft | 110 kts | 6° |
| 2026-05-04 17:37 | -41.43388 | -73.09384 | 1118 ft | 105 kts | 355° |
| 2026-05-04 17:38 | -41.42705 | -73.09403 | 1909 ft | 103 kts | 348° |
| 2026-05-04 17:38 | -41.42168 | -73.09827 | 2774 ft | 82 kts | 289° |
| 2026-05-04 17:38 | -41.42447 | -73.10523 | 3549 ft | 107 kts | 224° |
| 2026-05-04 17:38 | -41.43264 | -73.10617 | 4360 ft | 127 kts | 182° |
| 2026-05-04 17:39 | -41.44986 | -73.09728 | 5908 ft | 139 kts | 174° |
| 2026-05-04 17:39 | -41.45972 | -73.09479 | 6451 ft | 129 kts | 197° |
| 2026-05-04 17:39 | -41.46463 | -73.09861 | 7336 ft | 92 kts | 249° |
| 2026-05-04 17:40 | -41.47269 | -73.10200 | 7494 ft | 168 kts | 187° |
| 2026-05-04 17:40 | -41.48528 | -73.09819 | 7502 ft | 192 kts | 181° |
| 2026-05-04 17:40 | -41.49832 | -73.09759 | 7505 ft | 184 kts | 194° |
| 2026-05-04 17:40 | -41.51086 | -73.09892 | 7504 ft | 183 kts | 197° |
| 2026-05-04 17:41 | -41.52357 | -73.10024 | 7495 ft | 183 kts | 195° |
| 2026-05-04 17:41 | -41.53632 | -73.10133 | 7496 ft | 184 kts | 195° |
| 2026-05-04 17:41 | -41.54913 | -73.10236 | 7494 ft | 185 kts | 195° |
| 2026-05-04 17:41 | -41.56196 | -73.10341 | 7493 ft | 185 kts | 195° |
| 2026-05-04 17:42 | -41.57482 | -73.10447 | 7491 ft | 185 kts | 195° |
| 2026-05-04 17:42 | -41.58784 | -73.10452 | 7483 ft | 194 kts | 182° |
| 2026-05-04 17:42 | -41.60109 | -73.09977 | 7481 ft | 199 kts | 172° |
| 2026-05-04 17:42 | -41.61416 | -73.09445 | 7470 ft | 198 kts | 173° |
| 2026-05-04 17:43 | -41.62728 | -73.08920 | 7482 ft | 196 kts | 173° |
| 2026-05-04 17:43 | -41.64034 | -73.08400 | 7485 ft | 196 kts | 173° |
| 2026-05-04 17:43 | -41.65343 | -73.07877 | 7487 ft | 197 kts | 173° |
| 2026-05-04 17:43 | -41.66655 | -73.07353 | 7485 ft | 197 kts | 172° |
| 2026-05-04 17:44 | -41.67965 | -73.06827 | 7481 ft | 196 kts | 173° |
| 2026-05-04 17:44 | -41.69274 | -73.06303 | 7481 ft | 196 kts | 172° |
| 2026-05-04 17:44 | -41.70579 | -73.05771 | 7480 ft | 196 kts | 170° |
| 2026-05-04 17:44 | -41.71881 | -73.05233 | 7483 ft | 196 kts | 173° |
| 2026-05-04 17:45 | -41.73187 | -73.04729 | 7479 ft | 195 kts | 173° |
| 2026-05-04 17:45 | -41.74469 | -73.04223 | 7479 ft | 194 kts | 173° |
| 2026-05-04 17:45 | -41.75761 | -73.03703 | 7482 ft | 193 kts | 173° |
| 2026-05-04 17:45 | -41.77050 | -73.03189 | 7480 ft | 193 kts | 173° |
| 2026-05-04 17:46 | -41.78316 | -73.02667 | 7484 ft | 189 kts | 173° |
| 2026-05-04 17:46 | -41.79591 | -73.02167 | 7486 ft | 192 kts | 173° |
| 2026-05-04 17:46 | -41.80863 | -73.01655 | 7486 ft | 190 kts | 173° |
| 2026-05-04 17:46 | -41.82118 | -73.01141 | 7487 ft | 188 kts | 173° |
| 2026-05-04 17:47 | -41.83382 | -73.00639 | 7479 ft | 191 kts | 172° |
| 2026-05-04 17:47 | -41.84662 | -73.00118 | 7492 ft | 194 kts | 173° |
| 2026-05-04 17:47 | -41.85941 | -72.99601 | 7457 ft | 195 kts | 170° |
| 2026-05-04 17:47 | -41.87230 | -72.99053 | 7439 ft | 198 kts | 173° |
| 2026-05-04 17:48 | -41.88524 | -72.98552 | 7475 ft | 189 kts | 173° |
| 2026-05-04 17:48 | -41.89752 | -72.98073 | 7471 ft | 180 kts | 174° |
| 2026-05-04 17:48 | -41.90934 | -72.97596 | 7467 ft | 175 kts | 174° |
| 2026-05-04 17:48 | -41.92083 | -72.97132 | 7467 ft | 170 kts | 175° |
| 2026-05-04 17:49 | -41.93213 | -72.96677 | 7469 ft | 173 kts | 174° |
| 2026-05-04 17:49 | -41.94402 | -72.96203 | 7467 ft | 182 kts | 174° |
| 2026-05-04 17:49 | -41.95626 | -72.95708 | 7470 ft | 186 kts | 173° |
| 2026-05-04 17:49 | -41.96870 | -72.95203 | 7470 ft | 188 kts | 173° |
| 2026-05-04 17:50 | -41.98103 | -72.94701 | 7468 ft | 187 kts | 173° |
| 2026-05-04 17:50 | -41.99351 | -72.94196 | 7469 ft | 187 kts | 173° |
| 2026-05-04 17:50 | -42.00602 | -72.93690 | 7470 ft | 188 kts | 173° |
| 2026-05-04 17:50 | -42.01853 | -72.93181 | 7470 ft | 188 kts | 173° |
| 2026-05-04 17:51 | -42.03106 | -72.92668 | 7469 ft | 189 kts | 173° |
| 2026-05-04 17:51 | -42.04364 | -72.92152 | 7470 ft | 189 kts | 173° |
| 2026-05-04 17:51 | -42.05619 | -72.91635 | 7471 ft | 189 kts | 173° |
| 2026-05-04 17:51 | -42.06875 | -72.91118 | 7469 ft | 189 kts | 173° |
| 2026-05-04 17:52 | -42.08124 | -72.90602 | 7456 ft | 178 kts | 173° |
| 2026-05-04 17:52 | -42.09318 | -72.90097 | 7477 ft | 187 kts | 173° |
| 2026-05-04 17:52 | -42.10590 | -72.89637 | 7480 ft | 188 kts | 183° |
| 2026-05-04 17:52 | -42.11895 | -72.89462 | 7478 ft | 191 kts | 184° |
| 2026-05-04 17:53 | -42.13219 | -72.89183 | 7479 ft | 194 kts | 179° |
| 2026-05-04 17:53 | -42.14551 | -72.88807 | 7474 ft | 197 kts | 178° |
| 2026-05-04 17:53 | -42.15887 | -72.88408 | 7475 ft | 196 kts | 178° |
| 2026-05-04 17:53 | -42.17221 | -72.88020 | 7476 ft | 196 kts | 178° |
| 2026-05-04 17:54 | -42.18552 | -72.87637 | 7474 ft | 194 kts | 178° |
| 2026-05-04 17:54 | -42.19840 | -72.87264 | 7473 ft | 190 kts | 178° |
| 2026-05-04 17:54 | -42.21125 | -72.86894 | 7473 ft | 188 kts | 179° |
| 2026-05-04 17:54 | -42.22401 | -72.86527 | 7470 ft | 187 kts | 178° |
| 2026-05-04 17:55 | -42.23676 | -72.86161 | 7473 ft | 187 kts | 178° |
| 2026-05-04 17:55 | -42.24952 | -72.85791 | 7474 ft | 188 kts | 178° |
| 2026-05-04 17:55 | -42.26231 | -72.85422 | 7474 ft | 188 kts | 178° |
| 2026-05-04 17:55 | -42.27514 | -72.85051 | 7473 ft | 188 kts | 178° |
| 2026-05-04 17:56 | -42.28795 | -72.84681 | 7472 ft | 188 kts | 178° |
| 2026-05-04 17:56 | -42.30077 | -72.84309 | 7470 ft | 188 kts | 179° |
| 2026-05-04 17:56 | -42.31341 | -72.83943 | 7470 ft | 188 kts | 178° |
| 2026-05-04 17:56 | -42.32623 | -72.83572 | 7470 ft | 188 kts | 179° |
| 2026-05-04 17:57 | -42.33906 | -72.83201 | 7466 ft | 189 kts | 178° |
| 2026-05-04 17:57 | -42.35189 | -72.82829 | 7467 ft | 189 kts | 179° |
| 2026-05-04 17:57 | -42.36477 | -72.82453 | 7469 ft | 189 kts | 178° |
| 2026-05-04 17:57 | -42.37760 | -72.82080 | 7463 ft | 188 kts | 178° |
| 2026-05-04 17:58 | -42.39047 | -72.81713 | 7480 ft | 191 kts | 179° |
| 2026-05-04 17:58 | -42.39927 | -72.81395 | 7460 ft | 204 kts | 166° |
| 2026-05-04 17:58 | -42.41150 | -72.80315 | 7486 ft | 217 kts | 143° |
| 2026-05-04 17:58 | -42.42113 | -72.78711 | 7421 ft | 220 kts | 131° |
| 2026-05-04 17:59 | -42.43311 | -72.76588 | 7436 ft | 212 kts | 130° |
| 2026-05-04 17:59 | -42.44195 | -72.75033 | 7456 ft | 207 kts | 130° |
| 2026-05-04 17:59 | -42.45902 | -72.72033 | 7462 ft | 194 kts | 130° |
| 2026-05-04 18:00 | -42.46730 | -72.70586 | 7460 ft | 195 kts | 131° |
| 2026-05-04 18:00 | -42.47548 | -72.69146 | 7455 ft | 191 kts | 131° |
| 2026-05-04 18:00 | -42.48083 | -72.68208 | 7452 ft | 189 kts | 131° |
| 2026-05-04 18:00 | -42.48882 | -72.66794 | 7452 ft | 188 kts | 131° |
| 2026-05-04 18:01 | -42.49937 | -72.64929 | 7453 ft | 188 kts | 131° |
| 2026-05-04 18:01 | -42.50735 | -72.63523 | 7462 ft | 188 kts | 131° |
| 2026-05-04 18:01 | -42.51537 | -72.62109 | 7445 ft | 190 kts | 130° |
| 2026-05-04 18:02 | -42.52848 | -72.59798 | 7461 ft | 188 kts | 131° |
| 2026-05-04 18:02 | -42.53650 | -72.58389 | 7463 ft | 189 kts | 131° |
| 2026-05-04 18:02 | -42.54448 | -72.56976 | 7459 ft | 189 kts | 131° |
| 2026-05-04 18:02 | -42.55244 | -72.55558 | 7460 ft | 189 kts | 131° |
| 2026-05-04 18:03 | -42.56085 | -72.54212 | 7457 ft | 185 kts | 146° |
| 2026-05-04 18:03 | -42.57126 | -72.53226 | 7456 ft | 182 kts | 154° |
| 2026-05-04 18:03 | -42.58171 | -72.52266 | 7455 ft | 182 kts | 153° |
| 2026-05-04 18:03 | -42.59554 | -72.50989 | 7459 ft | 183 kts | 153° |
| 2026-05-04 18:04 | -42.60269 | -72.50329 | 7451 ft | 185 kts | 153° |
| 2026-05-04 18:04 | -42.61331 | -72.49343 | 7444 ft | 184 kts | 153° |
| 2026-05-04 18:04 | -42.63416 | -72.47414 | 7444 ft | 183 kts | 154° |
| 2026-05-04 18:05 | -42.64478 | -72.46433 | 7444 ft | 186 kts | 153° |
| 2026-05-04 18:05 | -42.65548 | -72.45450 | 7441 ft | 186 kts | 153° |
| 2026-05-04 18:05 | -42.66611 | -72.44451 | 7462 ft | 185 kts | 153° |
| 2026-05-04 18:05 | -42.67680 | -72.43462 | 7449 ft | 186 kts | 154° |
| 2026-05-04 18:06 | -42.69477 | -72.40881 | 7436 ft | 193 kts | 127° |
| 2026-05-04 18:06 | -42.70225 | -72.39376 | 7428 ft | 192 kts | 127° |
| 2026-05-04 18:06 | -42.70961 | -72.37909 | 7427 ft | 190 kts | 127° |
| 2026-05-04 18:07 | -42.71707 | -72.36421 | 7434 ft | 190 kts | 128° |
| 2026-05-04 18:07 | -42.72454 | -72.34932 | 7430 ft | 191 kts | 128° |
| 2026-05-04 18:07 | -42.73202 | -72.33437 | 7432 ft | 190 kts | 128° |
| 2026-05-04 18:07 | -42.73937 | -72.31963 | 7440 ft | 188 kts | 127° |
| 2026-05-04 18:08 | -42.74679 | -72.30491 | 7436 ft | 189 kts | 129° |
| 2026-05-04 18:08 | -42.75481 | -72.29075 | 7443 ft | 190 kts | 131° |
| 2026-05-04 18:08 | -42.76286 | -72.27617 | 7442 ft | 197 kts | 129° |
| 2026-05-04 18:08 | -42.77130 | -72.26082 | 7385 ft | 210 kts | 128° |
| 2026-05-04 18:09 | -42.78887 | -72.22897 | 7389 ft | 213 kts | 130° |
| 2026-05-04 18:09 | -42.80620 | -72.19768 | 7332 ft | 199 kts | 129° |
| 2026-05-04 18:10 | -42.81399 | -72.18323 | 7255 ft | 161 kts | 138° |
| 2026-05-04 18:10 | -42.82157 | -72.17202 | 7514 ft | 170 kts | 137° |
| 2026-05-04 18:10 | -42.82906 | -72.15697 | 7488 ft | 201 kts | 128° |
| 2026-05-04 18:10 | -42.83742 | -72.14121 | 7423 ft | 199 kts | 128° |
| 2026-05-04 18:11 | -42.84558 | -72.12605 | 7411 ft | 203 kts | 130° |
| 2026-05-04 18:11 | -42.85562 | -72.11335 | 7413 ft | 194 kts | 156° |
| 2026-05-04 18:11 | -42.86712 | -72.10410 | 7421 ft | 191 kts | 162° |
| 2026-05-04 18:11 | -42.87871 | -72.09489 | 7177 ft | 206 kts | 158° |
| 2026-05-04 18:12 | -42.89077 | -72.08600 | 7288 ft | 193 kts | 158° |
| 2026-05-04 18:12 | -42.90211 | -72.07583 | 7358 ft | 197 kts | 150° |
| 2026-05-04 18:12 | -42.91364 | -72.06687 | 7502 ft | 192 kts | 161° |
| 2026-05-04 18:12 | -42.92566 | -72.05705 | 7346 ft | 203 kts | 155° |
| 2026-05-04 18:13 | -42.93730 | -72.04678 | 7348 ft | 198 kts | 158° |
| 2026-05-04 18:13 | -42.94889 | -72.03736 | 7414 ft | 195 kts | 160° |
| 2026-05-04 18:13 | -42.97193 | -72.01631 | 7130 ft | 216 kts | 139° |
| 2026-05-04 18:14 | -42.98227 | -72.00160 | 6480 ft | 209 kts | 141° |
| 2026-05-04 18:14 | -42.99186 | -71.98763 | 5711 ft | 198 kts | 136° |
| 2026-05-04 18:14 | -43.00080 | -71.97417 | 5070 ft | 184 kts | 134° |
| 2026-05-04 18:15 | -43.01328 | -71.94674 | 4768 ft | 162 kts | 112° |
| 2026-05-04 18:15 | -43.02086 | -71.91624 | 4927 ft | 176 kts | 106° |
| 2026-05-04 18:15 | -43.02404 | -71.89948 | 5000 ft | 189 kts | 104° |
| 2026-05-04 18:16 | -43.02711 | -71.88168 | 4946 ft | 196 kts | 104° |
| 2026-05-04 18:16 | -43.03053 | -71.86352 | 4895 ft | 199 kts | 105° |
| 2026-05-04 18:16 | -43.03591 | -71.84717 | 4749 ft | 183 kts | 144° |
| 2026-05-04 18:17 | -43.05835 | -71.84326 | 4746 ft | 154 kts | 192° |
| 2026-05-04 18:17 | -43.06911 | -71.84454 | 4796 ft | 159 kts | 194° |
| 2026-05-04 18:17 | -43.08990 | -71.85385 | 4507 ft | 159 kts | 213° |
| 2026-05-04 18:18 | -43.09925 | -71.86063 | 4461 ft | 150 kts | 216° |
| 2026-05-04 18:18 | -43.10833 | -71.86774 | 4335 ft | 152 kts | 214° |
| 2026-05-04 18:18 | -43.11785 | -71.87394 | 4133 ft | 151 kts | 214° |
| 2026-05-04 18:18 | -43.12762 | -71.87872 | 3903 ft | 140 kts | 203° |
| 2026-05-04 18:19 | -43.14675 | -71.88755 | 3583 ft | 151 kts | 200° |
| 2026-05-04 18:19 | -43.15680 | -71.89162 | 2996 ft | 152 kts | 196° |
| 2026-05-04 18:19 | -43.16685 | -71.89313 | 2665 ft | 145 kts | 194° |
| 2026-05-04 18:20 | -43.17639 | -71.89493 | 2336 ft | 128 kts | 172° |
| 2026-05-04 18:20 | -43.18291 | -71.88856 | 2092 ft | 114 kts | 124° |
| 2026-05-04 18:20 | -43.18456 | -71.87967 | 1894 ft | 92 kts | 90° |
| 2026-05-04 18:20 | -43.18493 | -71.87111 | 1792 ft | 86 kts | 90° |
| 2026-05-04 18:21 | -43.18636 | -71.86314 | 1594 ft | 84 kts | 105° |
| 2026-05-04 18:21 | -43.18793 | -71.85557 | 1466 ft | 78 kts | 101° |
| 2026-05-04 18:21 | -43.18912 | -71.84977 | 1453 ft | 46 kts | 106° |
| 2026-05-04 18:21 | -43.18970 | -71.84680 | 1442 ft | 22 kts | 109° |
| 2026-05-04 18:22 | -43.18848 | -71.85276 | 1462 ft | 0 kts | 105° |
| 2026-05-04 18:22 | -43.18852 | -71.85266 | 1461 ft | 1 kts | 155° |
| 2026-05-04 18:23 | -43.18836 | -71.85339 | 1463 ft | 15 kts | 316° |
| 2026-05-04 18:23 | -43.18844 | -71.85391 | 1463 ft | 4 kts | 141° |
| 2026-05-04 18:23 | -43.18846 | -71.85388 | 1463 ft | 0 kts | 126° |